createdAt,value
2019-05-21T00:00:18.545Z,12.90
2019-05-21T00:02:50.211Z,12.90
2019-05-21T00:05:20.306Z,12.90
2019-05-21T00:07:50.341Z,12.90
2019-05-21T00:10:20.376Z,12.90
2019-05-21T00:12:50.704Z,12.90
2019-05-21T00:15:21.056Z,12.90
2019-05-21T00:17:51.054Z,12.90
2019-05-21T00:20:21.370Z,12.80
2019-05-21T00:22:51.528Z,12.80
2019-05-21T00:25:21.660Z,12.80
2019-05-21T00:27:51.790Z,12.80
2019-05-21T00:30:57.542Z,12.80
2019-05-21T00:34:03.279Z,12.80
2019-05-21T00:37:10.481Z,12.80
2019-05-21T00:40:15.936Z,12.80
2019-05-21T00:42:47.226Z,12.70
2019-05-21T00:45:17.372Z,12.70
2019-05-21T00:47:47.467Z,12.70
2019-05-21T00:50:17.645Z,12.60
2019-05-21T00:52:47.735Z,12.60
2019-05-21T00:55:17.876Z,12.60
2019-05-21T00:57:47.878Z,12.60
2019-05-21T01:00:18.353Z,12.60
2019-05-21T01:02:48.325Z,12.60
2019-05-21T01:05:18.307Z,12.50
2019-05-21T01:07:48.376Z,12.50
2019-05-21T01:10:18.750Z,12.50
2019-05-21T01:12:48.823Z,12.50
2019-05-21T01:15:18.978Z,12.50
2019-05-21T01:17:50.350Z,12.50
2019-05-21T01:20:20.495Z,12.50
2019-05-21T01:22:50.531Z,12.40
2019-05-21T01:25:20.672Z,12.40
2019-05-21T01:27:50.638Z,12.40
2019-05-21T01:30:20.755Z,12.30
2019-05-21T01:32:50.752Z,12.30
2019-05-21T01:35:20.733Z,12.30
2019-05-21T01:37:50.623Z,12.20
2019-05-21T01:40:20.847Z,12.20
2019-05-21T01:42:50.810Z,12.20
2019-05-21T01:45:21.117Z,12.20
2019-05-21T01:47:51.219Z,12.20
2019-05-21T01:50:21.334Z,12.20
2019-05-21T01:52:51.308Z,12.20
2019-05-21T01:55:21.210Z,12.20
2019-05-21T01:57:51.144Z,12.10
2019-05-21T02:00:21.319Z,12.10
2019-05-21T02:02:51.497Z,12.10
2019-05-21T02:05:32.810Z,12.00
2019-05-21T02:07:53.142Z,12.00
2019-05-21T02:10:23.370Z,11.90
2019-05-21T02:12:53.412Z,11.90
2019-05-21T02:15:23.603Z,11.90
2019-05-21T02:17:53.667Z,11.90
2019-05-21T02:20:23.686Z,11.80
2019-05-21T02:22:53.803Z,11.80
2019-05-21T02:25:26.440Z,11.80
2019-05-21T02:27:58.486Z,11.80
2019-05-21T02:30:28.667Z,11.80
2019-05-21T02:32:58.674Z,11.70
2019-05-21T02:35:28.752Z,11.70
2019-05-21T02:37:58.882Z,11.70
2019-05-21T02:40:29.026Z,11.70
2019-05-21T02:42:59.161Z,11.70
2019-05-21T02:45:29.123Z,11.70
2019-05-21T02:47:59.196Z,11.70
2019-05-21T02:50:31.032Z,11.70
2019-05-21T02:53:03.175Z,11.70
2019-05-21T02:55:34.748Z,11.60
2019-05-21T02:58:06.481Z,11.60
2019-05-21T03:00:46.995Z,11.60
2019-05-21T03:03:17.676Z,11.60
2019-05-21T03:05:47.740Z,11.60
2019-05-21T03:08:19.463Z,11.60
2019-05-21T03:10:51.379Z,11.60
2019-05-21T03:13:21.201Z,11.60
2019-05-21T03:15:51.217Z,11.60
2019-05-21T03:18:21.044Z,11.70
2019-05-21T03:20:50.993Z,11.60
2019-05-21T03:23:20.842Z,11.60
2019-05-21T03:25:53.292Z,11.70
2019-05-21T03:28:23.251Z,11.60
2019-05-21T03:30:53.106Z,11.60
2019-05-21T03:33:23.144Z,11.60
2019-05-21T03:35:54.893Z,11.60
2019-05-21T03:38:30.706Z,11.60
2019-05-21T03:41:00.667Z,11.60
2019-05-21T03:43:30.529Z,11.60
2019-05-21T03:46:00.468Z,11.60
2019-05-21T03:48:30.335Z,11.60
2019-05-21T03:51:00.170Z,11.60
2019-05-21T03:53:31.439Z,11.60
2019-05-21T03:56:12.590Z,11.60
2019-05-21T03:58:44.387Z,11.60
2019-05-21T04:01:16.483Z,11.60
2019-05-21T04:03:48.546Z,11.60
2019-05-21T04:06:20.394Z,11.60
2019-05-21T04:09:01.930Z,11.60
2019-05-21T04:11:36.633Z,11.60
2019-05-21T04:14:08.113Z,11.60
2019-05-21T04:16:50.982Z,11.60
2019-05-21T04:19:26.530Z,11.60
2019-05-21T04:21:59.641Z,11.60
2019-05-21T04:24:32.039Z,11.60
2019-05-21T04:27:04.031Z,11.60
2019-05-21T04:29:35.565Z,11.60
2019-05-21T04:32:07.695Z,11.60
2019-05-21T04:34:39.341Z,11.60
2019-05-21T04:37:12.138Z,11.60
2019-05-21T04:39:44.665Z,11.60
2019-05-21T04:42:16.906Z,11.60
2019-05-21T04:44:48.776Z,11.60
2019-05-21T04:47:23.894Z,11.60
2019-05-21T04:49:55.468Z,11.60
2019-05-21T04:52:28.048Z,11.50
2019-05-21T04:55:00.222Z,11.50
2019-05-21T04:57:31.796Z,11.50
2019-05-21T05:00:03.819Z,11.60
2019-05-21T05:02:35.451Z,11.50
2019-05-21T05:05:06.901Z,11.50
2019-05-21T05:07:38.433Z,11.50
2019-05-21T05:10:10.261Z,11.50
2019-05-21T05:12:42.529Z,11.50
2019-05-21T05:15:16.189Z,11.60
2019-05-21T05:17:51.970Z,11.60
2019-05-21T05:20:32.972Z,11.60
2019-05-21T05:23:16.064Z,11.60
2019-05-21T05:26:01.197Z,11.60
2019-05-21T05:29:04.285Z,11.60
2019-05-21T05:32:08.129Z,11.60
2019-05-21T05:35:00.026Z,11.60
2019-05-21T05:37:51.392Z,11.60
2019-05-21T05:40:52.609Z,11.60
2019-05-21T05:43:41.462Z,11.70
2019-05-21T05:46:30.671Z,11.70
2019-05-21T05:49:34.028Z,11.70
2019-05-21T05:52:33.274Z,11.70
2019-05-21T05:55:25.865Z,11.70
2019-05-21T05:58:22.682Z,11.70
2019-05-21T06:01:41.893Z,11.70
2019-05-21T06:04:30.603Z,11.70
2019-05-21T06:07:23.162Z,11.70
2019-05-21T06:10:19.320Z,11.70
2019-05-21T06:13:11.674Z,11.70
2019-05-21T06:16:25.311Z,11.70
2019-05-21T06:19:21.731Z,11.70
2019-05-21T06:22:24.426Z,11.70
2019-05-21T06:28:31.679Z,11.60
2019-05-21T06:31:22.933Z,11.60
2019-05-21T06:34:22.411Z,11.70
2019-05-21T06:37:38.604Z,11.70
2019-05-21T06:40:50.254Z,11.60
2019-05-21T06:43:53.359Z,11.70
2019-05-21T06:47:17.728Z,11.70
2019-05-21T06:53:37.330Z,11.70
2019-05-21T06:56:59.357Z,11.70
2019-05-21T07:00:02.296Z,11.70
2019-05-21T07:03:15.649Z,11.70
2019-05-21T07:06:28.819Z,11.70
2019-05-21T07:10:07.537Z,11.70
2019-05-21T07:13:03.026Z,11.70
2019-05-21T07:16:10.356Z,11.70
2019-05-21T07:18:43.093Z,11.70
2019-05-21T07:21:17.939Z,11.70
2019-05-21T07:23:50.565Z,11.70
2019-05-21T07:26:23.908Z,11.70
2019-05-21T07:28:56.445Z,11.70
2019-05-21T07:31:30.017Z,11.70
2019-05-21T07:34:02.899Z,11.70
2019-05-21T07:36:38.711Z,11.70
2019-05-21T07:39:11.445Z,11.70
2019-05-21T07:41:43.905Z,11.70
2019-05-21T07:44:14.770Z,11.70
2019-05-21T07:46:47.050Z,11.70
2019-05-21T07:49:19.334Z,11.70
2019-05-21T07:51:51.822Z,11.70
2019-05-21T07:54:27.934Z,11.70
2019-05-21T07:56:58.507Z,11.70
2019-05-21T07:59:30.741Z,11.70
2019-05-21T08:02:02.895Z,11.70
2019-05-21T08:04:37.078Z,11.70
2019-05-21T08:07:11.963Z,11.70
2019-05-21T08:09:44.670Z,11.70
2019-05-21T08:12:37.461Z,11.70
2019-05-21T08:14:54.458Z,11.70
2019-05-21T08:17:26.500Z,11.70
2019-05-21T08:20:08.730Z,11.60
2019-05-21T08:22:32.775Z,11.70
2019-05-21T08:25:05.075Z,11.70
2019-05-21T08:27:37.266Z,11.70
2019-05-21T08:30:09.882Z,11.70
2019-05-21T08:32:42.212Z,11.70
2019-05-21T08:35:14.795Z,11.70
2019-05-21T08:37:49.503Z,11.70
2019-05-21T08:40:21.802Z,11.70
2019-05-21T08:42:58.025Z,11.70
2019-05-21T08:45:31.519Z,11.70
2019-05-21T08:48:04.072Z,11.70
2019-05-21T08:50:36.485Z,11.70
2019-05-21T08:54:06.246Z,11.70
2019-05-21T08:56:39.008Z,11.70
2019-05-21T08:59:11.325Z,11.70
2019-05-21T09:01:52.972Z,11.70
2019-05-21T09:04:20.866Z,11.60
2019-05-21T09:06:55.838Z,11.60
2019-05-21T09:09:47.882Z,11.60
2019-05-21T09:12:02.283Z,11.60
2019-05-21T09:14:36.976Z,11.60
2019-05-21T09:17:09.718Z,11.60
2019-05-21T09:19:42.023Z,11.60
2019-05-21T09:22:14.148Z,11.70
2019-05-21T09:24:47.431Z,11.70
2019-05-21T09:27:21.002Z,11.70
2019-05-21T09:29:53.567Z,11.70
2019-05-21T09:32:25.975Z,11.70
2019-05-21T09:34:58.364Z,11.80
2019-05-21T09:37:31.115Z,11.80
2019-05-21T09:40:05.339Z,11.80
2019-05-21T09:42:37.776Z,11.80
2019-05-21T09:45:10.951Z,11.90
2019-05-21T09:47:43.428Z,12.00
2019-05-21T09:50:17.042Z,12.00
2019-05-21T09:52:49.375Z,11.90
2019-05-21T09:55:21.738Z,11.90
2019-05-21T09:58:15.365Z,11.90
2019-05-21T10:01:18.467Z,11.90
2019-05-21T10:03:59.740Z,11.90
2019-05-21T10:06:32.277Z,12.00
2019-05-21T10:09:05.232Z,12.00
2019-05-21T10:11:38.305Z,12.00
2019-05-21T10:14:11.175Z,12.00
2019-05-21T10:16:44.238Z,12.00
2019-05-21T10:19:18.076Z,12.00
2019-05-21T10:21:51.095Z,12.00
2019-05-21T10:24:23.514Z,12.00
2019-05-21T10:26:57.172Z,12.10
2019-05-21T10:29:29.849Z,12.10
2019-05-21T10:32:01.965Z,12.10
2019-05-21T10:34:34.192Z,12.00
2019-05-21T10:37:07.008Z,12.10
2019-05-21T10:39:42.526Z,12.10
2019-05-21T10:42:12.997Z,12.10
2019-05-21T10:44:45.658Z,12.10
2019-05-21T10:47:18.322Z,12.10
2019-05-21T10:49:51.512Z,12.20
2019-05-21T10:52:23.803Z,12.10
2019-05-21T10:54:54.180Z,12.10
2019-05-21T10:57:26.300Z,12.10
2019-05-21T10:59:58.324Z,12.10
2019-05-21T11:02:40.184Z,12.10
2019-05-21T11:05:18.146Z,12.10
2019-05-21T11:07:48.578Z,12.10
2019-05-21T11:10:21.938Z,12.10
2019-05-21T11:12:53.966Z,12.10
2019-05-21T11:15:26.101Z,12.10
2019-05-21T11:18:09.901Z,12.10
2019-05-21T11:20:32.599Z,12.10
2019-05-21T11:23:05.104Z,12.10
2019-05-21T11:25:37.628Z,12.10
2019-05-21T11:28:11.992Z,12.20
2019-05-21T11:30:47.797Z,12.20
2019-05-21T11:33:20.295Z,12.20
2019-05-21T11:35:52.804Z,12.20
2019-05-21T11:38:39.045Z,12.20
2019-05-21T11:40:59.523Z,12.10
2019-05-21T11:43:31.814Z,12.20
2019-05-21T11:46:04.639Z,12.20
2019-05-21T11:48:34.867Z,12.20
2019-05-21T11:51:05.318Z,12.30
2019-05-21T11:53:35.859Z,12.20
2019-05-21T11:56:06.611Z,12.20
2019-05-21T11:58:39.859Z,12.20
2019-05-21T12:01:08.961Z,12.20
2019-05-21T12:03:39.997Z,12.20
2019-05-21T12:06:12.917Z,12.20
2019-05-21T12:08:56.363Z,12.20
2019-05-21T12:11:17.234Z,12.20
2019-05-21T12:13:50.550Z,12.10
2019-05-21T12:16:23.149Z,12.10
2019-05-21T12:18:56.304Z,12.10
2019-05-21T12:21:28.638Z,12.10
2019-05-21T12:24:01.428Z,12.10
2019-05-21T12:26:34.826Z,12.10
2019-05-21T12:29:08.014Z,12.00
2019-05-21T12:31:40.555Z,12.10
2019-05-21T12:34:13.666Z,12.10
2019-05-21T12:36:46.181Z,12.10
2019-05-21T12:39:16.512Z,12.00
2019-05-21T12:41:48.392Z,12.00
2019-05-21T12:44:20.504Z,12.00
2019-05-21T12:46:52.654Z,12.00
2019-05-21T12:49:22.896Z,12.00
2019-05-21T12:51:55.534Z,12.10
2019-05-21T12:54:27.969Z,12.10
2019-05-21T12:57:00.266Z,12.10
2019-05-21T12:59:48.328Z,12.10
2019-05-21T13:02:20.994Z,12.00
2019-05-21T13:04:53.594Z,12.10
2019-05-21T13:07:23.863Z,12.10
2019-05-21T13:09:58.109Z,12.10
2019-05-21T13:12:30.624Z,12.10
2019-05-21T13:15:00.758Z,12.10
2019-05-21T13:17:30.967Z,12.10
2019-05-21T13:20:04.243Z,12.10
2019-05-21T13:22:40.772Z,12.10
2019-05-21T13:25:11.940Z,12.20
2019-05-21T13:27:44.284Z,12.20
2019-05-21T13:30:18.173Z,12.20
2019-05-21T13:32:52.852Z,12.10
2019-05-21T13:35:29.611Z,12.10
2019-05-21T13:38:01.921Z,12.20
2019-05-21T13:40:37.450Z,12.20
2019-05-21T13:43:10.167Z,12.20
2019-05-21T13:45:40.414Z,12.20
2019-05-21T13:48:19.391Z,12.30
2019-05-21T13:50:52.160Z,12.30
2019-05-21T13:53:25.152Z,12.20
2019-05-21T13:55:55.301Z,12.30
2019-05-21T13:58:29.371Z,12.30
2019-05-21T14:01:02.173Z,12.30
2019-05-21T14:03:35.224Z,12.30
2019-05-21T14:06:05.596Z,12.30
2019-05-21T14:08:37.636Z,12.30
2019-05-21T14:11:08.086Z,12.40
2019-05-21T14:13:38.620Z,12.50
2019-05-21T14:16:08.925Z,12.50
2019-05-21T14:18:39.244Z,12.50
2019-05-21T14:21:09.510Z,12.50
2019-05-21T14:23:39.678Z,12.50
2019-05-21T14:26:10.129Z,12.40
2019-05-21T14:28:40.234Z,12.50
2019-05-21T14:31:12.913Z,12.40
2019-05-21T14:33:46.513Z,12.40
2019-05-21T14:36:14.920Z,12.40
2019-05-21T14:38:45.154Z,12.40
2019-05-21T14:41:15.469Z,12.40
2019-05-21T14:43:45.722Z,12.40
2019-05-21T14:46:15.939Z,12.40
2019-05-21T14:48:46.200Z,12.40
2019-05-21T14:51:16.279Z,12.40
2019-05-21T14:53:47.203Z,12.30
2019-05-21T14:56:17.542Z,12.30
2019-05-21T14:58:47.682Z,12.30
2019-05-21T15:01:18.027Z,12.30
2019-05-21T15:03:48.114Z,12.30
2019-05-21T15:06:18.516Z,12.30
2019-05-21T15:08:48.736Z,12.30
2019-05-21T15:11:19.022Z,12.30
2019-05-21T15:13:49.171Z,12.20
2019-05-21T15:16:19.303Z,12.30
2019-05-21T15:18:49.414Z,12.30
2019-05-21T15:21:42.810Z,12.30
2019-05-21T15:24:13.371Z,12.30
2019-05-21T15:26:44.996Z,12.30
2019-05-21T15:29:14.991Z,12.30
2019-05-21T15:31:45.304Z,12.30
2019-05-21T15:34:15.593Z,12.30
2019-05-21T15:36:47.113Z,12.30
2019-05-21T15:39:17.392Z,12.30
2019-05-21T15:41:47.737Z,12.30
2019-05-21T15:44:18.073Z,12.30
2019-05-21T15:46:50.969Z,12.40
2019-05-21T15:49:35.512Z,12.40
2019-05-21T15:51:57.136Z,12.40
2019-05-21T15:54:30.553Z,12.50
2019-05-21T15:57:03.131Z,12.50
2019-05-21T15:59:35.403Z,12.50
2019-05-21T16:02:07.560Z,12.50
2019-05-21T16:04:39.900Z,12.60
2019-05-21T16:07:12.594Z,12.60
2019-05-21T16:09:44.538Z,12.60
2019-05-21T16:12:16.912Z,12.70
2019-05-21T16:14:48.632Z,12.70
2019-05-21T16:17:21.195Z,12.70
2019-05-21T16:19:51.429Z,12.70
2019-05-21T16:22:21.499Z,12.70
2019-05-21T16:24:51.779Z,12.70
2019-05-21T16:27:21.921Z,12.70
2019-05-21T16:29:52.119Z,12.70
2019-05-21T16:32:22.266Z,12.70
2019-05-21T16:34:52.483Z,12.60
2019-05-21T16:37:23.091Z,12.70
2019-05-21T16:39:53.424Z,12.70
2019-05-21T16:42:23.633Z,12.60
2019-05-21T16:44:53.743Z,12.60
2019-05-21T16:47:24.420Z,12.60
2019-05-21T16:49:54.601Z,12.60
2019-05-21T16:52:24.548Z,12.60
2019-05-21T16:54:54.731Z,12.60
2019-05-21T16:57:24.819Z,12.60
2019-05-21T16:59:55.188Z,12.60
2019-05-21T17:02:25.567Z,12.60
2019-05-21T17:04:55.675Z,12.60
2019-05-21T17:07:25.768Z,12.60
2019-05-21T17:09:56.040Z,12.60
2019-05-21T17:12:26.125Z,12.60
2019-05-21T17:14:56.142Z,12.60
2019-05-21T17:17:26.219Z,12.60
2019-05-21T17:19:56.445Z,12.60
2019-05-21T17:22:26.540Z,12.60
2019-05-21T17:24:56.691Z,12.60
2019-05-21T17:27:26.862Z,12.60
2019-05-21T17:29:57.131Z,12.60
2019-05-21T17:32:27.075Z,12.60
2019-05-21T17:34:57.195Z,12.60
2019-05-21T17:37:27.504Z,12.60
2019-05-21T17:39:57.762Z,12.50
2019-05-21T17:42:27.739Z,12.60
2019-05-21T17:44:58.068Z,12.50
2019-05-21T17:47:28.097Z,12.60
2019-05-21T17:49:58.267Z,12.50
2019-05-21T17:52:28.206Z,12.50
2019-05-21T17:54:58.604Z,12.50
2019-05-21T17:57:29.466Z,12.50
2019-05-21T17:59:59.768Z,12.50
2019-05-21T18:02:31.578Z,12.50
2019-05-21T18:05:01.926Z,12.50
2019-05-21T18:07:32.748Z,12.40
2019-05-21T18:10:03.319Z,12.50
2019-05-21T18:12:34.281Z,12.40
2019-05-21T18:15:05.284Z,12.40
2019-05-21T18:17:36.140Z,12.40
2019-05-21T18:20:08.792Z,12.40
2019-05-21T18:22:40.502Z,12.40
2019-05-21T18:25:11.797Z,12.40
2019-05-21T18:27:42.824Z,12.50
2019-05-21T18:30:32.042Z,12.40
2019-05-21T18:33:03.156Z,12.40
2019-05-21T18:35:33.631Z,12.40
2019-05-21T18:38:04.118Z,12.40
2019-05-21T18:40:34.689Z,12.40
2019-05-21T18:43:05.275Z,12.40
2019-05-21T18:45:36.408Z,12.40
2019-05-21T18:48:06.814Z,12.40
2019-05-21T18:50:37.497Z,12.40
2019-05-21T18:53:08.099Z,12.40
2019-05-21T18:55:38.854Z,12.40
2019-05-21T18:58:09.110Z,12.40
2019-05-21T19:00:39.686Z,12.40
2019-05-21T19:03:10.532Z,12.40
2019-05-21T19:05:40.900Z,12.50
2019-05-21T19:08:11.509Z,12.50
2019-05-21T19:10:42.289Z,12.40
2019-05-21T19:13:12.741Z,12.50
2019-05-21T19:15:43.134Z,12.50
2019-05-21T19:18:13.550Z,12.50
2019-05-21T19:20:44.255Z,12.40
2019-05-21T19:23:14.857Z,12.50
2019-05-21T19:25:45.780Z,12.50
2019-05-21T19:28:16.047Z,12.40
2019-05-21T19:30:47.809Z,12.40
2019-05-21T19:33:18.532Z,12.50
2019-05-21T19:35:49.122Z,12.40
2019-05-21T19:38:19.784Z,12.40
2019-05-21T19:40:50.259Z,12.40
2019-05-21T19:43:20.953Z,12.40
2019-05-21T19:45:51.402Z,12.40
2019-05-21T19:48:21.560Z,12.50
2019-05-21T19:50:51.939Z,12.50
2019-05-21T19:53:22.528Z,12.50
2019-05-21T19:55:53.803Z,12.50
2019-05-21T19:58:24.040Z,12.50
2019-05-21T20:00:55.188Z,12.50
2019-05-21T20:03:26.495Z,12.50
2019-05-21T20:05:57.822Z,12.50
2019-05-21T20:08:29.843Z,12.50
2019-05-21T20:11:00.428Z,12.50
2019-05-21T20:13:32.820Z,12.50
2019-05-21T20:16:05.010Z,12.50
2019-05-21T20:18:35.753Z,12.50
2019-05-21T20:21:08.322Z,12.50
2019-05-21T20:23:40.345Z,12.60
2019-05-21T20:26:15.082Z,12.60
2019-05-21T20:28:46.850Z,12.60
2019-05-21T20:31:17.454Z,12.60
2019-05-21T20:33:50.357Z,12.60
2019-05-21T20:36:20.529Z,12.60
2019-05-21T20:38:51.164Z,12.60
2019-05-21T20:41:21.876Z,12.60
2019-05-21T20:43:58.933Z,12.70
2019-05-21T20:46:26.137Z,12.60
2019-05-21T20:48:56.812Z,12.60
2019-05-21T20:51:27.186Z,12.60
2019-05-21T20:53:57.218Z,12.60
2019-05-21T20:56:27.427Z,12.60
2019-05-21T20:58:57.591Z,12.60
2019-05-21T21:01:28.418Z,12.60
2019-05-21T21:03:59.060Z,12.60
2019-05-21T21:06:35.209Z,12.60
2019-05-21T21:09:02.697Z,12.70
2019-05-21T21:11:33.397Z,12.60
2019-05-21T21:14:17.483Z,12.70
2019-05-21T21:16:37.694Z,12.70
2019-05-21T21:19:07.812Z,12.70
2019-05-21T21:21:38.415Z,12.60
2019-05-21T21:24:09.144Z,12.70
2019-05-21T21:26:39.643Z,12.60
2019-05-21T21:29:10.320Z,12.60
2019-05-21T21:31:40.262Z,12.70
2019-05-21T21:34:10.487Z,12.60
2019-05-21T21:36:40.966Z,12.70
2019-05-21T21:39:12.393Z,12.70
2019-05-21T21:41:43.462Z,12.70
2019-05-21T21:44:13.838Z,12.60
2019-05-21T21:46:43.928Z,12.60
2019-05-21T21:49:16.011Z,12.60
2019-05-21T21:51:46.285Z,12.60
2019-05-21T21:54:17.197Z,12.70
2019-05-21T21:56:47.260Z,12.60
2019-05-21T21:59:17.323Z,12.60
2019-05-21T22:01:58.180Z,12.60
2019-05-21T22:04:36.562Z,12.60
2019-05-21T22:07:07.216Z,12.60
2019-05-21T22:09:40.244Z,12.60
2019-05-21T22:12:12.950Z,12.60
2019-05-21T22:14:51.751Z,12.60
2019-05-21T22:17:17.550Z,12.60
2019-05-21T22:19:47.627Z,12.60
2019-05-21T22:22:17.882Z,12.60
2019-05-21T22:24:48.681Z,12.60
2019-05-21T22:27:20.118Z,12.60
2019-05-21T22:29:50.192Z,12.60
2019-05-21T22:32:20.142Z,12.50
2019-05-21T22:34:50.224Z,12.60
2019-05-21T22:37:24.104Z,12.60
2019-05-21T22:39:54.668Z,12.60
2019-05-21T22:42:25.290Z,12.50
2019-05-21T22:45:07.359Z,12.50
2019-05-21T22:47:27.381Z,12.50
2019-05-21T22:49:57.715Z,12.50
2019-05-21T22:52:27.870Z,12.50
2019-05-21T22:54:57.813Z,12.50
2019-05-21T22:57:27.770Z,12.50
2019-05-21T22:59:57.846Z,12.50
2019-05-21T23:02:31.757Z,12.50
2019-05-21T23:05:01.940Z,12.50
2019-05-21T23:07:32.376Z,12.50
2019-05-21T23:10:03.050Z,12.50
2019-05-21T23:12:33.949Z,12.50
2019-05-21T23:15:05.146Z,12.50
2019-05-21T23:17:36.915Z,12.40
2019-05-21T23:20:08.480Z,12.50
2019-05-21T23:22:38.841Z,12.40
2019-05-21T23:25:10.953Z,12.40
2019-05-21T23:27:41.795Z,12.40
2019-05-21T23:30:12.857Z,12.40
2019-05-21T23:32:43.606Z,12.40
2019-05-21T23:35:14.148Z,12.40
2019-05-21T23:37:47.288Z,12.40
2019-05-21T23:40:17.700Z,12.40
2019-05-21T23:42:47.778Z,12.40
2019-05-21T23:45:17.831Z,12.30
2019-05-21T23:47:47.980Z,12.30
2019-05-21T23:50:20.849Z,12.40
2019-05-21T23:52:52.885Z,12.30
2019-05-21T23:55:23.339Z,12.30
2019-05-21T23:57:53.659Z,12.20
